KOVE/OVE METAR and TAF weather

Enter ICAO airport designator
Station Type Date Time Source
KOVE METAR 2019/10/15 02:53 UTC NOAA

KOVE 150253Z AUTO 08003KT 10SM CLR 18/02 A2995 RMK AO2 SLP143 T01830017 53007


Station Type Date Time Source
KOVE Decoded METAR 2019/10/15 02:53 UTC NOAA

OROVILLE MUNICIPAL AIRPORT, CA, United States (KOVE) 39-30N 121-37W 58M
Oct 14, 2019 - 10:53 PM EDT / 2019.10.15 0253 UTC
Wind: from the E (080 degrees) at 3 MPH (3 KT):0
Visibility: 10 mile(s):0
Sky conditions: clear
Temperature: 64.9 F (18.3 C)
Dew Point: 35.1 F (1.7 C)
Relative Humidity: 32%
Pressure (altimeter): 29.95 in. Hg (1014 hPa)
Pressure tendency: 0.02 inches (0.7 hPa) higher than three hours ago
ob: KOVE 150253Z AUTO 08003KT 10SM CLR 18/02 A2995 RMK AO2 SLP143 T01830017 53007
cycle: 3

Station Type Date Time Source
KOVE TAF UTC NOAA

Error!

Example: see airport list